sensor_id;sensor_type;location;lat;lon;timestamp;P1;durP1;ratioP1;P2;durP2;ratioP2
3726;SDS011;1879;45.876;12.300;2024-03-08T00:02:03;13.63;;;12.17;;
3726;SDS011;1879;45.876;12.300;2024-03-08T00:04:32;13.20;;;11.90;;
3726;SDS011;1879;45.876;12.300;2024-03-08T00:06:59;12.97;;;11.63;;
3726;SDS011;1879;45.876;12.300;2024-03-08T00:09:26;12.33;;;10.90;;
3726;SDS011;1879;45.876;12.300;2024-03-08T00:11:53;11.03;;;10.03;;
3726;SDS011;1879;45.876;12.300;2024-03-08T00:14:20;11.80;;;10.80;;
3726;SDS011;1879;45.876;12.300;2024-03-08T00:16:47;12.33;;;11.23;;
3726;SDS011;1879;45.876;12.300;2024-03-08T00:19:14;11.37;;;10.37;;
3726;SDS011;1879;45.876;12.300;2024-03-08T00:21:42;12.23;;;11.03;;
3726;SDS011;1879;45.876;12.300;2024-03-08T00:24:09;11.70;;;10.70;;
3726;SDS011;1879;45.876;12.300;2024-03-08T00:26:37;12.73;;;11.50;;
3726;SDS011;1879;45.876;12.300;2024-03-08T00:29:04;11.80;;;10.57;;
3726;SDS011;1879;45.876;12.300;2024-03-08T00:31:32;12.10;;;11.00;;
3726;SDS011;1879;45.876;12.300;2024-03-08T00:34:00;12.13;;;11.13;;
3726;SDS011;1879;45.876;12.300;2024-03-08T00:36:27;12.30;;;11.00;;
3726;SDS011;1879;45.876;12.300;2024-03-08T00:38:56;11.80;;;10.70;;
3726;SDS011;1879;45.876;12.300;2024-03-08T00:41:25;11.27;;;10.27;;
3726;SDS011;1879;45.876;12.300;2024-03-08T00:43:52;12.53;;;11.33;;
3726;SDS011;1879;45.876;12.300;2024-03-08T00:46:19;12.33;;;11.23;;
3726;SDS011;1879;45.876;12.300;2024-03-08T00:48:47;12.13;;;11.03;;
3726;SDS011;1879;45.876;12.300;2024-03-08T00:51:14;11.83;;;10.73;;
3726;SDS011;1879;45.876;12.300;2024-03-08T00:53:41;13.10;;;11.90;;
3726;SDS011;1879;45.876;12.300;2024-03-08T00:56:10;13.80;;;12.40;;
3726;SDS011;1879;45.876;12.300;2024-03-08T00:58:37;12.63;;;11.43;;
3726;SDS011;1879;45.876;12.300;2024-03-08T01:01:04;12.70;;;11.50;;
3726;SDS011;1879;45.876;12.300;2024-03-08T01:03:31;12.90;;;11.23;;
3726;SDS011;1879;45.876;12.300;2024-03-08T01:05:59;13.03;;;11.83;;
3726;SDS011;1879;45.876;12.300;2024-03-08T01:08:27;13.87;;;12.57;;
3726;SDS011;1879;45.876;12.300;2024-03-08T01:10:54;13.93;;;12.63;;
3726;SDS011;1879;45.876;12.300;2024-03-08T01:13:22;13.07;;;11.83;;
3726;SDS011;1879;45.876;12.300;2024-03-08T01:15:49;12.90;;;11.70;;
3726;SDS011;1879;45.876;12.300;2024-03-08T01:18:16;13.30;;;12.00;;
3726;SDS011;1879;45.876;12.300;2024-03-08T01:20:44;12.43;;;11.13;;
3726;SDS011;1879;45.876;12.300;2024-03-08T01:23:11;12.77;;;11.50;;
3726;SDS011;1879;45.876;12.300;2024-03-08T01:25:39;12.00;;;10.80;;
3726;SDS011;1879;45.876;12.300;2024-03-08T01:28:06;12.77;;;11.67;;
3726;SDS011;1879;45.876;12.300;2024-03-08T01:30:36;12.00;;;10.90;;
3726;SDS011;1879;45.876;12.300;2024-03-08T01:33:04;11.10;;;9.97;;
3726;SDS011;1879;45.876;12.300;2024-03-08T01:35:31;12.90;;;11.70;;
3726;SDS011;1879;45.876;12.300;2024-03-08T01:37:58;12.30;;;11.13;;
3726;SDS011;1879;45.876;12.300;2024-03-08T01:40:25;11.67;;;10.57;;
3726;SDS011;1879;45.876;12.300;2024-03-08T01:42:52;13.40;;;12.10;;
3726;SDS011;1879;45.876;12.300;2024-03-08T01:45:19;11.80;;;10.63;;
3726;SDS011;1879;45.876;12.300;2024-03-08T01:47:47;12.30;;;11.20;;
3726;SDS011;1879;45.876;12.300;2024-03-08T01:50:14;11.20;;;10.10;;
3726;SDS011;1879;45.876;12.300;2024-03-08T01:52:42;11.33;;;10.23;;
3726;SDS011;1879;45.876;12.300;2024-03-08T01:55:10;10.07;;;9.23;;
3726;SDS011;1879;45.876;12.300;2024-03-08T01:57:39;9.63;;;8.73;;
3726;SDS011;1879;45.876;12.300;2024-03-08T02:00:07;9.37;;;8.47;;
3726;SDS011;1879;45.876;12.300;2024-03-08T02:02:36;8.60;;;7.90;;
3726;SDS011;1879;45.876;12.300;2024-03-08T02:05:06;8.13;;;7.43;;
3726;SDS011;1879;45.876;12.300;2024-03-08T02:07:34;7.20;;;6.60;;
3726;SDS011;1879;45.876;12.300;2024-03-08T02:10:01;7.47;;;6.77;;
3726;SDS011;1879;45.876;12.300;2024-03-08T02:12:28;10.10;;;7.60;;
3726;SDS011;1879;45.876;12.300;2024-03-08T02:14:55;7.70;;;7.00;;
3726;SDS011;1879;45.876;12.300;2024-03-08T02:17:22;8.13;;;6.47;;
3726;SDS011;1879;45.876;12.300;2024-03-08T02:19:49;7.57;;;6.77;;
3726;SDS011;1879;45.876;12.300;2024-03-08T02:22:17;7.17;;;6.53;;
3726;SDS011;1879;45.876;12.300;2024-03-08T02:24:45;6.30;;;5.70;;
3726;SDS011;1879;45.876;12.300;2024-03-08T02:27:12;5.93;;;5.43;;
3726;SDS011;1879;45.876;12.300;2024-03-08T02:29:39;5.93;;;5.43;;
3726;SDS011;1879;45.876;12.300;2024-03-08T02:32:09;5.20;;;4.80;;
3726;SDS011;1879;45.876;12.300;2024-03-08T02:34:36;5.93;;;5.40;;
3726;SDS011;1879;45.876;12.300;2024-03-08T02:37:03;5.13;;;4.73;;
3726;SDS011;1879;45.876;12.300;2024-03-08T02:39:31;5.70;;;5.20;;
3726;SDS011;1879;45.876;12.300;2024-03-08T02:41:58;6.13;;;5.30;;
3726;SDS011;1879;45.876;12.300;2024-03-08T02:44:25;5.67;;;5.17;;
3726;SDS011;1879;45.876;12.300;2024-03-08T02:46:52;5.70;;;5.20;;
3726;SDS011;1879;45.876;12.300;2024-03-08T02:49:20;7.20;;;5.73;;
3726;SDS011;1879;45.876;12.300;2024-03-08T02:51:47;7.20;;;5.60;;
3726;SDS011;1879;45.876;12.300;2024-03-08T02:54:14;6.50;;;5.80;;
3726;SDS011;1879;45.876;12.300;2024-03-08T02:56:43;6.47;;;5.97;;
3726;SDS011;1879;45.876;12.300;2024-03-08T02:59:11;6.33;;;5.70;;
3726;SDS011;1879;45.876;12.300;2024-03-08T03:01:38;7.70;;;6.90;;
3726;SDS011;1879;45.876;12.300;2024-03-08T03:04:06;6.93;;;6.33;;
3726;SDS011;1879;45.876;12.300;2024-03-08T03:06:33;7.40;;;6.80;;
3726;SDS011;1879;45.876;12.300;2024-03-08T03:09:00;10.30;;;7.83;;
3726;SDS011;1879;45.876;12.300;2024-03-08T03:11:27;7.90;;;7.20;;
3726;SDS011;1879;45.876;12.300;2024-03-08T03:13:56;9.70;;;8.80;;
3726;SDS011;1879;45.876;12.300;2024-03-08T03:16:23;9.90;;;8.90;;
3726;SDS011;1879;45.876;12.300;2024-03-08T03:18:50;10.70;;;9.60;;
3726;SDS011;1879;45.876;12.300;2024-03-08T03:21:17;10.40;;;9.30;;
3726;SDS011;1879;45.876;12.300;2024-03-08T03:23:44;13.00;;;11.70;;
3726;SDS011;1879;45.876;12.300;2024-03-08T03:26:11;13.33;;;11.80;;
3726;SDS011;1879;45.876;12.300;2024-03-08T03:28:38;13.30;;;12.00;;
3726;SDS011;1879;45.876;12.300;2024-03-08T03:31:07;13.50;;;12.20;;
3726;SDS011;1879;45.876;12.300;2024-03-08T03:33:39;12.53;;;11.43;;
3726;SDS011;1879;45.876;12.300;2024-03-08T03:36:06;14.47;;;12.97;;
3726;SDS011;1879;45.876;12.300;2024-03-08T03:38:35;17.90;;;16.20;;
3726;SDS011;1879;45.876;12.300;2024-03-08T03:41:02;18.33;;;15.00;;
3726;SDS011;1879;45.876;12.300;2024-03-08T03:43:35;16.23;;;14.63;;
3726;SDS011;1879;45.876;12.300;2024-03-08T03:46:06;12.17;;;11.07;;
3726;SDS011;1879;45.876;12.300;2024-03-08T03:48:35;11.30;;;10.20;;
3726;SDS011;1879;45.876;12.300;2024-03-08T03:51:02;12.43;;;11.30;;
3726;SDS011;1879;45.876;12.300;2024-03-08T03:53:29;11.77;;;10.77;;
3726;SDS011;1879;45.876;12.300;2024-03-08T03:55:56;10.17;;;9.27;;
3726;SDS011;1879;45.876;12.300;2024-03-08T03:58:24;9.77;;;8.40;;
3726;SDS011;1879;45.876;12.300;2024-03-08T04:00:52;9.43;;;8.67;;
3726;SDS011;1879;45.876;12.300;2024-03-08T04:03:20;9.10;;;8.30;;
3726;SDS011;1879;45.876;12.300;2024-03-08T04:05:47;9.27;;;8.47;;
3726;SDS011;1879;45.876;12.300;2024-03-08T04:08:14;7.50;;;6.80;;
3726;SDS011;1879;45.876;12.300;2024-03-08T04:10:42;7.70;;;7.10;;
3726;SDS011;1879;45.876;12.300;2024-03-08T04:13:09;7.80;;;7.10;;
3726;SDS011;1879;45.876;12.300;2024-03-08T04:15:36;7.90;;;7.30;;
3726;SDS011;1879;45.876;12.300;2024-03-08T04:18:03;6.65;;;6.05;;
3726;SDS011;1879;45.876;12.300;2024-03-08T04:20:32;8.03;;;7.43;;
3726;SDS011;1879;45.876;12.300;2024-03-08T04:22:59;8.40;;;7.60;;
3726;SDS011;1879;45.876;12.300;2024-03-08T04:25:26;8.10;;;7.40;;
3726;SDS011;1879;45.876;12.300;2024-03-08T04:27:53;7.00;;;6.40;;
3726;SDS011;1879;45.876;12.300;2024-03-08T04:30:20;7.80;;;7.20;;
3726;SDS011;1879;45.876;12.300;2024-03-08T04:32:47;7.93;;;7.22;;
3726;SDS011;1879;45.876;12.300;2024-03-08T04:35:14;7.73;;;7.10;;
3726;SDS011;1879;45.876;12.300;2024-03-08T04:37:43;7.43;;;6.83;;
3726;SDS011;1879;45.876;12.300;2024-03-08T04:40:10;8.07;;;7.33;;
3726;SDS011;1879;45.876;12.300;2024-03-08T04:42:37;8.43;;;7.63;;
3726;SDS011;1879;45.876;12.300;2024-03-08T04:45:06;7.97;;;7.00;;
3726;SDS011;1879;45.876;12.300;2024-03-08T04:47:36;7.43;;;6.63;;
3726;SDS011;1879;45.876;12.300;2024-03-08T04:50:03;8.40;;;7.70;;
3726;SDS011;1879;45.876;12.300;2024-03-08T04:52:30;8.93;;;8.13;;
3726;SDS011;1879;45.876;12.300;2024-03-08T04:54:59;9.20;;;8.40;;
3726;SDS011;1879;45.876;12.300;2024-03-08T04:57:27;9.00;;;8.10;;
3726;SDS011;1879;45.876;12.300;2024-03-08T04:59:54;9.00;;;8.20;;
3726;SDS011;1879;45.876;12.300;2024-03-08T05:02:21;8.60;;;7.80;;
3726;SDS011;1879;45.876;12.300;2024-03-08T05:04:48;8.80;;;8.00;;
3726;SDS011;1879;45.876;12.300;2024-03-08T05:07:16;8.07;;;7.37;;
3726;SDS011;1879;45.876;12.300;2024-03-08T05:09:42;8.17;;;7.33;;
3726;SDS011;1879;45.876;12.300;2024-03-08T05:12:17;8.43;;;7.60;;
3726;SDS011;1879;45.876;12.300;2024-03-08T05:14:45;10.43;;;8.40;;
3726;SDS011;1879;45.876;12.300;2024-03-08T05:17:14;7.83;;;7.10;;
3726;SDS011;1879;45.876;12.300;2024-03-08T05:19:41;8.70;;;7.80;;
3726;SDS011;1879;45.876;12.300;2024-03-08T05:22:08;9.17;;;8.27;;
3726;SDS011;1879;45.876;12.300;2024-03-08T05:24:35;8.60;;;7.60;;
3726;SDS011;1879;45.876;12.300;2024-03-08T05:27:03;8.23;;;7.53;;
3726;SDS011;1879;45.876;12.300;2024-03-08T05:29:31;8.50;;;7.60;;
3726;SDS011;1879;45.876;12.300;2024-03-08T05:31:58;8.70;;;7.90;;
3726;SDS011;1879;45.876;12.300;2024-03-08T05:34:26;7.90;;;7.13;;
3726;SDS011;1879;45.876;12.300;2024-03-08T05:36:53;8.77;;;7.87;;
3726;SDS011;1879;45.876;12.300;2024-03-08T05:39:20;8.43;;;7.73;;
3726;SDS011;1879;45.876;12.300;2024-03-08T05:41:48;8.07;;;7.27;;
3726;SDS011;1879;45.876;12.300;2024-03-08T05:44:15;7.60;;;6.90;;
3726;SDS011;1879;45.876;12.300;2024-03-08T05:46:44;8.75;;;7.70;;
3726;SDS011;1879;45.876;12.300;2024-03-08T05:49:12;10.53;;;9.63;;
3726;SDS011;1879;45.876;12.300;2024-03-08T05:51:39;9.70;;;8.80;;
3726;SDS011;1879;45.876;12.300;2024-03-08T05:54:08;9.70;;;8.80;;
3726;SDS011;1879;45.876;12.300;2024-03-08T05:56:36;10.83;;;9.73;;
3726;SDS011;1879;45.876;12.300;2024-03-08T05:59:03;10.17;;;9.30;;
3726;SDS011;1879;45.876;12.300;2024-03-08T06:01:30;10.13;;;9.23;;
3726;SDS011;1879;45.876;12.300;2024-03-08T06:04:02;8.80;;;8.10;;
3726;SDS011;1879;45.876;12.300;2024-03-08T06:06:30;9.60;;;8.80;;
3726;SDS011;1879;45.876;12.300;2024-03-08T06:08:57;9.93;;;9.17;;
3726;SDS011;1879;45.876;12.300;2024-03-08T06:11:24;9.53;;;8.73;;
3726;SDS011;1879;45.876;12.300;2024-03-08T06:13:53;13.10;;;7.73;;
3726;SDS011;1879;45.876;12.300;2024-03-08T06:16:25;10.20;;;9.30;;
3726;SDS011;1879;45.876;12.300;2024-03-08T06:18:54;12.87;;;9.10;;
3726;SDS011;1879;45.876;12.300;2024-03-08T06:21:23;10.43;;;9.43;;
3726;SDS011;1879;45.876;12.300;2024-03-08T06:23:51;8.87;;;8.07;;
3726;SDS011;1879;45.876;12.300;2024-03-08T06:26:19;9.37;;;8.47;;
3726;SDS011;1879;45.876;12.300;2024-03-08T06:28:47;8.23;;;7.43;;
3726;SDS011;1879;45.876;12.300;2024-03-08T06:31:14;9.80;;;7.30;;
3726;SDS011;1879;45.876;12.300;2024-03-08T06:33:41;7.97;;;7.17;;
3726;SDS011;1879;45.876;12.300;2024-03-08T06:36:08;7.30;;;6.70;;
3726;SDS011;1879;45.876;12.300;2024-03-08T06:38:38;8.93;;;8.03;;
3726;SDS011;1879;45.876;12.300;2024-03-08T06:41:07;9.00;;;8.20;;
3726;SDS011;1879;45.876;12.300;2024-03-08T06:43:40;8.10;;;7.40;;
3726;SDS011;1879;45.876;12.300;2024-03-08T06:46:07;9.67;;;8.23;;
3726;SDS011;1879;45.876;12.300;2024-03-08T06:48:35;9.20;;;8.30;;
3726;SDS011;1879;45.876;12.300;2024-03-08T06:51:03;8.87;;;7.83;;
3726;SDS011;1879;45.876;12.300;2024-03-08T06:53:31;9.80;;;8.90;;
3726;SDS011;1879;45.876;12.300;2024-03-08T06:56:01;10.20;;;9.23;;
3726;SDS011;1879;45.876;12.300;2024-03-08T06:58:28;10.47;;;9.40;;
3726;SDS011;1879;45.876;12.300;2024-03-08T07:00:55;9.83;;;9.00;;
3726;SDS011;1879;45.876;12.300;2024-03-08T07:03:25;10.37;;;8.30;;
3726;SDS011;1879;45.876;12.300;2024-03-08T07:05:54;10.07;;;9.17;;
3726;SDS011;1879;45.876;12.300;2024-03-08T07:08:21;9.67;;;8.63;;
3726;SDS011;1879;45.876;12.300;2024-03-08T07:10:48;10.10;;;9.13;;
3726;SDS011;1879;45.876;12.300;2024-03-08T07:13:17;13.50;;;9.17;;
3726;SDS011;1879;45.876;12.300;2024-03-08T07:15:44;10.93;;;9.80;;
3726;SDS011;1879;45.876;12.300;2024-03-08T07:18:11;11.30;;;10.17;;
3726;SDS011;1879;45.876;12.300;2024-03-08T07:20:40;11.33;;;9.97;;
3726;SDS011;1879;45.876;12.300;2024-03-08T07:23:08;12.63;;;11.33;;
3726;SDS011;1879;45.876;12.300;2024-03-08T07:25:35;11.70;;;10.60;;
3726;SDS011;1879;45.876;12.300;2024-03-08T07:28:04;12.57;;;11.37;;
3726;SDS011;1879;45.876;12.300;2024-03-08T07:30:33;11.80;;;10.60;;
3726;SDS011;1879;45.876;12.300;2024-03-08T07:33:26;11.77;;;10.77;;
3726;SDS011;1879;45.876;12.300;2024-03-08T07:35:53;13.07;;;11.87;;
3726;SDS011;1879;45.876;12.300;2024-03-08T07:38:21;11.10;;;10.03;;
3726;SDS011;1879;45.876;12.300;2024-03-08T07:40:48;16.30;;;13.07;;
3726;SDS011;1879;45.876;12.300;2024-03-08T07:43:15;12.73;;;11.63;;
3726;SDS011;1879;45.876;12.300;2024-03-08T07:45:44;12.57;;;11.40;;
3726;SDS011;1879;45.876;12.300;2024-03-08T07:48:11;15.40;;;12.90;;
3726;SDS011;1879;45.876;12.300;2024-03-08T07:50:38;13.10;;;11.87;;
3726;SDS011;1879;45.876;12.300;2024-03-08T07:53:06;13.23;;;12.03;;
3726;SDS011;1879;45.876;12.300;2024-03-08T07:55:33;13.87;;;12.57;;
3726;SDS011;1879;45.876;12.300;2024-03-08T07:58:00;14.10;;;12.90;;
3726;SDS011;1879;45.876;12.300;2024-03-08T08:00:28;13.33;;;12.10;;
3726;SDS011;1879;45.876;12.300;2024-03-08T08:02:57;18.00;;;14.23;;
3726;SDS011;1879;45.876;12.300;2024-03-08T08:05:24;19.40;;;13.17;;
3726;SDS011;1879;45.876;12.300;2024-03-08T08:07:52;13.27;;;12.00;;
3726;SDS011;1879;45.876;12.300;2024-03-08T08:10:19;12.43;;;11.23;;
3726;SDS011;1879;45.876;12.300;2024-03-08T08:12:47;12.60;;;11.30;;
3726;SDS011;1879;45.876;12.300;2024-03-08T08:15:15;11.40;;;10.47;;
3726;SDS011;1879;45.876;12.300;2024-03-08T08:17:42;13.07;;;11.87;;
3726;SDS011;1879;45.876;12.300;2024-03-08T08:20:11;13.10;;;11.80;;
3726;SDS011;1879;45.876;12.300;2024-03-08T08:22:38;13.07;;;11.30;;
3726;SDS011;1879;45.876;12.300;2024-03-08T08:25:06;11.63;;;10.60;;
3726;SDS011;1879;45.876;12.300;2024-03-08T08:27:33;11.37;;;10.37;;
3726;SDS011;1879;45.876;12.300;2024-03-08T08:30:01;12.93;;;11.83;;
3726;SDS011;1879;45.876;12.300;2024-03-08T08:32:33;12.50;;;11.10;;
3726;SDS011;1879;45.876;12.300;2024-03-08T08:35:00;12.17;;;10.97;;
3726;SDS011;1879;45.876;12.300;2024-03-08T08:37:29;12.83;;;11.70;;
3726;SDS011;1879;45.876;12.300;2024-03-08T08:39:56;13.40;;;12.00;;
3726;SDS011;1879;45.876;12.300;2024-03-08T08:42:23;12.73;;;11.57;;
3726;SDS011;1879;45.876;12.300;2024-03-08T08:44:51;13.90;;;12.60;;
3726;SDS011;1879;45.876;12.300;2024-03-08T08:47:18;13.00;;;11.90;;
3726;SDS011;1879;45.876;12.300;2024-03-08T08:49:45;12.63;;;11.63;;
3726;SDS011;1879;45.876;12.300;2024-03-08T08:52:12;13.90;;;12.50;;
3726;SDS011;1879;45.876;12.300;2024-03-08T08:54:42;14.73;;;13.57;;
3726;SDS011;1879;45.876;12.300;2024-03-08T08:57:09;15.50;;;14.13;;
3726;SDS011;1879;45.876;12.300;2024-03-08T08:59:36;17.37;;;15.87;;
3726;SDS011;1879;45.876;12.300;2024-03-08T09:02:04;16.60;;;14.90;;
3726;SDS011;1879;45.876;12.300;2024-03-08T09:04:31;15.03;;;13.40;;
3726;SDS011;1879;45.876;12.300;2024-03-08T09:06:58;16.43;;;14.93;;
3726;SDS011;1879;45.876;12.300;2024-03-08T09:09:26;15.67;;;14.17;;
3726;SDS011;1879;45.876;12.300;2024-03-08T09:11:56;14.90;;;13.50;;
3726;SDS011;1879;45.876;12.300;2024-03-08T09:14:23;16.97;;;15.47;;
3726;SDS011;1879;45.876;12.300;2024-03-08T09:16:51;17.20;;;15.60;;
3726;SDS011;1879;45.876;12.300;2024-03-08T09:19:18;15.90;;;14.50;;
3726;SDS011;1879;45.876;12.300;2024-03-08T09:21:45;15.50;;;14.00;;
3726;SDS011;1879;45.876;12.300;2024-03-08T09:24:13;16.10;;;14.60;;
3726;SDS011;1879;45.876;12.300;2024-03-08T09:26:41;15.37;;;14.07;;
3726;SDS011;1879;45.876;12.300;2024-03-08T09:29:09;15.73;;;14.00;;
3726;SDS011;1879;45.876;12.300;2024-03-08T09:31:36;16.00;;;14.60;;
3726;SDS011;1879;45.876;12.300;2024-03-08T09:34:04;16.20;;;14.53;;
3726;SDS011;1879;45.876;12.300;2024-03-08T09:36:33;17.50;;;15.90;;
3726;SDS011;1879;45.876;12.300;2024-03-08T09:39:00;17.10;;;15.50;;
3726;SDS011;1879;45.876;12.300;2024-03-08T09:41:28;15.80;;;14.40;;
3726;SDS011;1879;45.876;12.300;2024-03-08T09:43:55;17.03;;;15.30;;
3726;SDS011;1879;45.876;12.300;2024-03-08T09:46:26;16.70;;;15.30;;
3726;SDS011;1879;45.876;12.300;2024-03-08T09:48:53;18.13;;;16.53;;
3726;SDS011;1879;45.876;12.300;2024-03-08T09:51:21;18.60;;;16.80;;
3726;SDS011;1879;45.876;12.300;2024-03-08T09:53:51;17.10;;;15.60;;
3726;SDS011;1879;45.876;12.300;2024-03-08T09:56:18;17.10;;;15.50;;
3726;SDS011;1879;45.876;12.300;2024-03-08T09:58:46;17.93;;;16.30;;
3726;SDS011;1879;45.876;12.300;2024-03-08T10:01:34;18.40;;;16.53;;
3726;SDS011;1879;45.876;12.300;2024-03-08T10:04:02;18.30;;;16.60;;
3726;SDS011;1879;45.876;12.300;2024-03-08T10:06:29;18.07;;;16.23;;
3726;SDS011;1879;45.876;12.300;2024-03-08T10:08:56;18.87;;;17.17;;
3726;SDS011;1879;45.876;12.300;2024-03-08T10:11:24;17.60;;;16.00;;
3726;SDS011;1879;45.876;12.300;2024-03-08T10:13:52;17.90;;;16.30;;
3726;SDS011;1879;45.876;12.300;2024-03-08T10:16:19;17.57;;;15.87;;
3726;SDS011;1879;45.876;12.300;2024-03-08T10:18:48;16.80;;;15.40;;
3726;SDS011;1879;45.876;12.300;2024-03-08T10:21:15;16.17;;;14.57;;
3726;SDS011;1879;45.876;12.300;2024-03-08T10:23:42;16.97;;;15.50;;
3726;SDS011;1879;45.876;12.300;2024-03-08T10:26:13;17.40;;;15.80;;
3726;SDS011;1879;45.876;12.300;2024-03-08T10:28:41;17.27;;;15.57;;
3726;SDS011;1879;45.876;12.300;2024-03-08T10:31:09;17.73;;;16.10;;
3726;SDS011;1879;45.876;12.300;2024-03-08T10:33:36;16.93;;;15.33;;
3726;SDS011;1879;45.876;12.300;2024-03-08T10:36:07;17.20;;;15.57;;
3726;SDS011;1879;45.876;12.300;2024-03-08T10:38:35;16.30;;;14.63;;
3726;SDS011;1879;45.876;12.300;2024-03-08T10:41:04;15.83;;;14.30;;
3726;SDS011;1879;45.876;12.300;2024-03-08T10:43:33;17.57;;;15.70;;
3726;SDS011;1879;45.876;12.300;2024-03-08T10:46:13;16.50;;;15.10;;
3726;SDS011;1879;45.876;12.300;2024-03-08T10:48:49;17.13;;;15.50;;
3726;SDS011;1879;45.876;12.300;2024-03-08T10:51:17;15.90;;;14.50;;
3726;SDS011;1879;45.876;12.300;2024-03-08T10:53:46;13.87;;;12.67;;
3726;SDS011;1879;45.876;12.300;2024-03-08T10:56:16;15.43;;;13.83;;
3726;SDS011;1879;45.876;12.300;2024-03-08T10:58:43;14.73;;;13.37;;
3726;SDS011;1879;45.876;12.300;2024-03-08T11:01:12;14.70;;;13.30;;
3726;SDS011;1879;45.876;12.300;2024-03-08T11:03:46;14.87;;;13.57;;
3726;SDS011;1879;45.876;12.300;2024-03-08T11:06:23;15.17;;;13.87;;
3726;SDS011;1879;45.876;12.300;2024-03-08T11:08:57;15.50;;;14.00;;
3726;SDS011;1879;45.876;12.300;2024-03-08T11:11:25;15.37;;;13.97;;
3726;SDS011;1879;45.876;12.300;2024-03-08T11:13:55;15.93;;;14.50;;
3726;SDS011;1879;45.876;12.300;2024-03-08T11:16:38;17.57;;;15.90;;
3726;SDS011;1879;45.876;12.300;2024-03-08T11:19:24;17.27;;;14.27;;
3726;SDS011;1879;45.876;12.300;2024-03-08T11:21:58;16.17;;;14.67;;
3726;SDS011;1879;45.876;12.300;2024-03-08T11:24:26;14.30;;;12.90;;
3726;SDS011;1879;45.876;12.300;2024-03-08T11:26:57;15.57;;;14.17;;
3726;SDS011;1879;45.876;12.300;2024-03-08T11:29:32;14.87;;;13.40;;
3726;SDS011;1879;45.876;12.300;2024-03-08T11:32:04;14.23;;;13.00;;
3726;SDS011;1879;45.876;12.300;2024-03-08T11:34:33;14.53;;;13.07;;
3726;SDS011;1879;45.876;12.300;2024-03-08T11:37:02;13.73;;;12.50;;
3726;SDS011;1879;45.876;12.300;2024-03-08T11:39:30;13.40;;;12.23;;
3726;SDS011;1879;45.876;12.300;2024-03-08T11:41:57;13.00;;;11.87;;
3726;SDS011;1879;45.876;12.300;2024-03-08T11:44:26;13.17;;;11.77;;
3726;SDS011;1879;45.876;12.300;2024-03-08T11:46:53;15.97;;;14.47;;
3726;SDS011;1879;45.876;12.300;2024-03-08T11:49:20;14.27;;;12.90;;
3726;SDS011;1879;45.876;12.300;2024-03-08T11:51:50;14.83;;;13.50;;
3726;SDS011;1879;45.876;12.300;2024-03-08T11:54:20;14.63;;;13.27;;
3726;SDS011;1879;45.876;12.300;2024-03-08T11:56:48;14.70;;;13.30;;
3726;SDS011;1879;45.876;12.300;2024-03-08T11:59:18;14.27;;;13.07;;
3726;SDS011;1879;45.876;12.300;2024-03-08T12:01:57;14.50;;;13.00;;
3726;SDS011;1879;45.876;12.300;2024-03-08T12:04:26;15.00;;;13.60;;
3726;SDS011;1879;45.876;12.300;2024-03-08T12:06:53;15.50;;;14.10;;
3726;SDS011;1879;45.876;12.300;2024-03-08T12:09:21;16.17;;;14.60;;
3726;SDS011;1879;45.876;12.300;2024-03-08T12:11:48;15.60;;;14.10;;
3726;SDS011;1879;45.876;12.300;2024-03-08T12:14:16;16.40;;;14.87;;
3726;SDS011;1879;45.876;12.300;2024-03-08T12:16:43;16.73;;;14.93;;
3726;SDS011;1879;45.876;12.300;2024-03-08T12:19:10;18.07;;;16.37;;
3726;SDS011;1879;45.876;12.300;2024-03-08T12:21:37;17.83;;;16.13;;
3726;SDS011;1879;45.876;12.300;2024-03-08T12:24:13;17.40;;;15.70;;
3726;SDS011;1879;45.876;12.300;2024-03-08T12:26:43;17.83;;;16.00;;
3726;SDS011;1879;45.876;12.300;2024-03-08T12:29:16;15.73;;;14.13;;
3726;SDS011;1879;45.876;12.300;2024-03-08T12:31:47;17.00;;;15.40;;
3726;SDS011;1879;45.876;12.300;2024-03-08T12:34:16;16.57;;;15.07;;
3726;SDS011;1879;45.876;12.300;2024-03-08T12:36:44;16.00;;;14.53;;
3726;SDS011;1879;45.876;12.300;2024-03-08T12:39:13;16.47;;;14.97;;
3726;SDS011;1879;45.876;12.300;2024-03-08T12:41:44;15.57;;;13.50;;
3726;SDS011;1879;45.876;12.300;2024-03-08T12:44:11;16.10;;;14.40;;
3726;SDS011;1879;45.876;12.300;2024-03-08T12:46:38;16.77;;;14.60;;
3726;SDS011;1879;45.876;12.300;2024-03-08T12:49:07;16.53;;;15.03;;
3726;SDS011;1879;45.876;12.300;2024-03-08T12:51:35;14.63;;;13.23;;
3726;SDS011;1879;45.876;12.300;2024-03-08T12:54:04;16.43;;;14.83;;
3726;SDS011;1879;45.876;12.300;2024-03-08T12:56:33;16.17;;;14.67;;
3726;SDS011;1879;45.876;12.300;2024-03-08T12:59:03;15.73;;;14.20;;
3726;SDS011;1879;45.876;12.300;2024-03-08T13:01:32;16.93;;;15.43;;
3726;SDS011;1879;45.876;12.300;2024-03-08T13:03:59;15.67;;;14.20;;
3726;SDS011;1879;45.876;12.300;2024-03-08T13:06:28;17.30;;;15.60;;
3726;SDS011;1879;45.876;12.300;2024-03-08T13:08:56;17.23;;;15.60;;
3726;SDS011;1879;45.876;12.300;2024-03-08T13:11:23;17.70;;;15.90;;
3726;SDS011;1879;45.876;12.300;2024-03-08T13:13:51;18.90;;;16.00;;
3726;SDS011;1879;45.876;12.300;2024-03-08T13:16:20;15.67;;;14.07;;
3726;SDS011;1879;45.876;12.300;2024-03-08T13:18:47;15.30;;;13.80;;
3726;SDS011;1879;45.876;12.300;2024-03-08T13:21:14;17.20;;;15.60;;
3726;SDS011;1879;45.876;12.300;2024-03-08T13:23:45;15.63;;;14.23;;
3726;SDS011;1879;45.876;12.300;2024-03-08T13:26:15;15.50;;;14.20;;
3726;SDS011;1879;45.876;12.300;2024-03-08T13:28:42;15.50;;;14.10;;
3726;SDS011;1879;45.876;12.300;2024-03-08T13:31:10;15.53;;;14.13;;
3726;SDS011;1879;45.876;12.300;2024-03-08T13:33:38;15.20;;;13.80;;
3726;SDS011;1879;45.876;12.300;2024-03-08T13:36:07;16.47;;;14.87;;
3726;SDS011;1879;45.876;12.300;2024-03-08T13:38:40;16.17;;;14.27;;
3726;SDS011;1879;45.876;12.300;2024-03-08T13:41:09;17.90;;;14.27;;
3726;SDS011;1879;45.876;12.300;2024-03-08T13:43:36;14.77;;;13.37;;
3726;SDS011;1879;45.876;12.300;2024-03-08T13:46:05;15.57;;;14.07;;
3726;SDS011;1879;45.876;12.300;2024-03-08T13:48:32;16.10;;;14.50;;
3726;SDS011;1879;45.876;12.300;2024-03-08T13:51:00;15.17;;;13.77;;
3726;SDS011;1879;45.876;12.300;2024-03-08T13:53:27;15.90;;;14.30;;
3726;SDS011;1879;45.876;12.300;2024-03-08T13:55:54;13.67;;;12.37;;
3726;SDS011;1879;45.876;12.300;2024-03-08T13:58:21;14.20;;;12.90;;
3726;SDS011;1879;45.876;12.300;2024-03-08T14:00:49;14.87;;;13.57;;
3726;SDS011;1879;45.876;12.300;2024-03-08T14:03:16;15.40;;;13.90;;
3726;SDS011;1879;45.876;12.300;2024-03-08T14:05:43;15.70;;;14.10;;
3726;SDS011;1879;45.876;12.300;2024-03-08T14:08:13;16.10;;;14.50;;
3726;SDS011;1879;45.876;12.300;2024-03-08T14:10:41;14.93;;;13.47;;
3726;SDS011;1879;45.876;12.300;2024-03-08T14:13:08;14.93;;;13.57;;
3726;SDS011;1879;45.876;12.300;2024-03-08T14:15:36;15.90;;;14.33;;
3726;SDS011;1879;45.876;12.300;2024-03-08T14:18:07;15.33;;;13.83;;
3726;SDS011;1879;45.876;12.300;2024-03-08T14:20:34;15.27;;;13.67;;
3726;SDS011;1879;45.876;12.300;2024-03-08T14:23:01;16.10;;;14.60;;
3726;SDS011;1879;45.876;12.300;2024-03-08T14:25:32;17.30;;;15.63;;
3726;SDS011;1879;45.876;12.300;2024-03-08T14:27:59;16.93;;;15.33;;
3726;SDS011;1879;45.876;12.300;2024-03-08T14:30:31;17.27;;;15.77;;
3726;SDS011;1879;45.876;12.300;2024-03-08T14:33:00;16.93;;;15.40;;
3726;SDS011;1879;45.876;12.300;2024-03-08T14:35:27;17.63;;;15.93;;
3726;SDS011;1879;45.876;12.300;2024-03-08T14:37:54;18.33;;;16.53;;
3726;SDS011;1879;45.876;12.300;2024-03-08T14:40:22;17.70;;;16.00;;
3726;SDS011;1879;45.876;12.300;2024-03-08T14:42:50;14.67;;;13.27;;
3726;SDS011;1879;45.876;12.300;2024-03-08T14:45:17;15.40;;;13.90;;
3726;SDS011;1879;45.876;12.300;2024-03-08T14:47:45;14.83;;;13.37;;
3726;SDS011;1879;45.876;12.300;2024-03-08T14:50:14;15.20;;;13.70;;